createdAt,value
2017-12-01T00:00:57.651Z,1.00
2017-12-01T00:03:26.126Z,1.00
2017-12-01T00:05:54.404Z,1.00
2017-12-01T00:08:23.232Z,0.90
2017-12-01T00:10:50.725Z,0.90
2017-12-01T00:13:18.227Z,0.90
2017-12-01T00:15:45.739Z,0.80
2017-12-01T00:18:13.223Z,0.80
2017-12-01T00:20:41.517Z,0.70
2017-12-01T00:23:09.027Z,0.70
2017-12-01T00:25:36.528Z,0.70
2017-12-01T00:28:04.898Z,0.60
2017-12-01T00:30:33.146Z,0.60
2017-12-01T00:33:00.634Z,0.50
2017-12-01T00:35:28.894Z,0.60
2017-12-01T00:37:56.415Z,0.60
2017-12-01T00:40:24.725Z,0.60
2017-12-01T00:42:52.968Z,0.60
2017-12-01T00:45:20.455Z,0.60
2017-12-01T00:47:48.718Z,0.70
2017-12-01T00:50:16.701Z,0.70
2017-12-01T00:52:44.175Z,0.70
2017-12-01T00:55:11.686Z,0.70
2017-12-01T00:57:39.171Z,0.70
2017-12-01T01:00:07.439Z,0.70
2017-12-01T01:02:34.958Z,0.70
2017-12-01T01:05:02.537Z,0.70
2017-12-01T01:07:30.039Z,0.70
2017-12-01T01:09:57.566Z,0.60
2017-12-01T01:12:25.064Z,0.60
2017-12-01T01:14:52.599Z,0.60
2017-12-01T01:17:20.868Z,0.60
2017-12-01T01:19:48.366Z,0.60
2017-12-01T01:22:16.771Z,0.60
2017-12-01T01:24:44.519Z,0.70
2017-12-01T01:27:12.017Z,0.70
2017-12-01T01:29:39.604Z,0.70
2017-12-01T01:32:07.866Z,0.70
2017-12-01T01:34:36.126Z,0.70
2017-12-01T01:37:04.519Z,0.70
2017-12-01T01:39:32.783Z,0.70
2017-12-01T01:42:00.298Z,0.70
2017-12-01T01:44:27.982Z,0.70
2017-12-01T01:46:55.480Z,0.70
2017-12-01T01:49:24.619Z,0.60
2017-12-01T01:51:52.957Z,0.60
2017-12-01T01:54:21.211Z,0.70
2017-12-01T01:56:49.476Z,0.70
2017-12-01T01:59:17.061Z,0.70
2017-12-01T02:01:45.328Z,0.70
2017-12-01T02:04:13.618Z,0.70
2017-12-01T02:06:41.897Z,0.70
2017-12-01T02:09:10.175Z,0.70
2017-12-01T02:11:37.664Z,0.70
2017-12-01T02:14:05.189Z,0.70
2017-12-01T02:16:33.451Z,0.70
2017-12-01T02:19:01.742Z,0.70
2017-12-01T02:21:29.250Z,0.70
2017-12-01T02:23:56.810Z,0.70
2017-12-01T02:26:25.051Z,0.70
2017-12-01T02:28:52.598Z,0.60
2017-12-01T02:31:20.103Z,0.70
2017-12-01T02:33:47.595Z,0.70
2017-12-01T02:36:16.704Z,0.50
2017-12-01T02:38:44.980Z,0.50
2017-12-01T02:41:12.503Z,0.50
2017-12-01T02:43:40.001Z,0.50
2017-12-01T02:46:07.521Z,0.50
2017-12-01T02:48:35.021Z,0.50
2017-12-01T02:51:02.533Z,0.50
2017-12-01T02:53:30.249Z,0.40
2017-12-01T02:55:57.750Z,0.40
2017-12-01T02:58:25.375Z,0.40
2017-12-01T03:00:53.467Z,0.40
2017-12-01T03:03:20.981Z,0.50
2017-12-01T03:05:48.626Z,0.50
2017-12-01T03:08:16.940Z,0.50
2017-12-01T03:10:44.504Z,0.50
2017-12-01T03:13:12.719Z,0.50
2017-12-01T03:15:40.215Z,0.50
2017-12-01T03:18:07.729Z,0.50
2017-12-01T03:20:35.240Z,0.50
2017-12-01T03:23:02.732Z,0.50
2017-12-01T03:25:30.220Z,0.50
2017-12-01T03:27:58.495Z,0.50
2017-12-01T03:30:26.773Z,0.50
2017-12-01T03:32:55.057Z,0.60
2017-12-01T03:35:23.329Z,0.60
2017-12-01T03:37:50.892Z,0.60
2017-12-01T03:40:19.156Z,0.60
2017-12-01T03:42:47.457Z,0.60
2017-12-01T03:45:15.033Z,0.60
2017-12-01T03:47:42.665Z,0.60
2017-12-01T03:50:11.829Z,0.60
2017-12-01T03:52:39.320Z,0.60
2017-12-01T03:55:07.600Z,0.60
2017-12-01T03:57:35.090Z,0.60
2017-12-01T04:00:02.618Z,0.60
2017-12-01T04:02:30.471Z,0.70
2017-12-01T04:04:58.741Z,0.70
2017-12-01T04:07:26.266Z,0.60
2017-12-01T04:09:53.755Z,0.60
2017-12-01T04:12:22.012Z,0.70
2017-12-01T04:14:49.510Z,0.60
2017-12-01T04:17:17.015Z,0.60
2017-12-01T04:19:44.555Z,0.60
2017-12-01T04:22:12.492Z,0.60
2017-12-01T04:24:40.039Z,0.60
2017-12-01T04:27:08.310Z,0.70
2017-12-01T04:29:36.577Z,0.70
2017-12-01T04:32:04.885Z,0.70
2017-12-01T04:34:33.151Z,0.70
2017-12-01T04:37:00.660Z,0.70
2017-12-01T04:39:28.158Z,0.80
2017-12-01T04:41:56.417Z,0.80
2017-12-01T04:44:24.403Z,0.80
2017-12-01T04:46:52.655Z,0.80
2017-12-01T04:49:20.157Z,0.80
2017-12-01T04:51:47.952Z,0.80
2017-12-01T04:54:15.454Z,0.80
2017-12-01T04:56:43.728Z,0.90
2017-12-01T04:59:11.997Z,0.90
2017-12-01T05:01:40.284Z,0.90
2017-12-01T05:04:08.539Z,0.90
2017-12-01T05:06:36.035Z,0.90
2017-12-01T05:09:04.477Z,1.00
2017-12-01T05:11:31.961Z,1.00
2017-12-01T05:13:59.483Z,1.00
2017-12-01T05:16:26.984Z,1.00
2017-12-01T05:18:54.491Z,1.00
2017-12-01T05:21:22.722Z,1.00
2017-12-01T05:23:50.437Z,1.00
2017-12-01T05:26:17.954Z,1.00
2017-12-01T05:28:45.447Z,1.00
2017-12-01T05:31:12.962Z,0.90
2017-12-01T05:33:40.492Z,1.00
2017-12-01T05:36:08.765Z,1.00
2017-12-01T05:38:37.057Z,1.00
2017-12-01T05:41:04.560Z,1.00
2017-12-01T05:43:33.282Z,1.00
2017-12-01T05:46:01.579Z,0.90
2017-12-01T05:48:29.991Z,0.80
2017-12-01T05:50:57.478Z,0.80
2017-12-01T05:53:25.005Z,0.80
2017-12-01T05:55:52.509Z,0.80
2017-12-01T05:58:20.766Z,0.80
2017-12-01T06:00:48.289Z,0.80
2017-12-01T06:03:15.818Z,0.80
2017-12-01T06:05:43.302Z,0.80
2017-12-01T06:08:10.817Z,0.80
2017-12-01T06:10:39.094Z,0.70
2017-12-01T06:13:07.359Z,0.70
2017-12-01T06:15:34.855Z,0.70
2017-12-01T06:18:02.363Z,0.70
2017-12-01T06:20:29.870Z,0.60
2017-12-01T06:22:57.370Z,0.60
2017-12-01T06:25:24.874Z,0.50
2017-12-01T06:27:53.143Z,0.50
2017-12-01T06:30:21.415Z,0.50
2017-12-01T06:32:48.931Z,0.50
2017-12-01T06:35:16.458Z,0.50
2017-12-01T06:37:43.961Z,0.40
2017-12-01T06:40:11.514Z,0.50
2017-12-01T06:42:39.009Z,0.50
2017-12-01T06:45:07.279Z,0.40
2017-12-01T06:47:35.545Z,0.40
2017-12-01T06:50:03.821Z,0.40
2017-12-01T06:52:31.905Z,0.40
2017-12-01T06:54:59.408Z,0.40
2017-12-01T06:57:26.921Z,0.50
2017-12-01T06:59:55.190Z,0.60
2017-12-01T07:02:23.461Z,0.70
2017-12-01T07:04:51.754Z,0.80
2017-12-01T07:07:19.250Z,0.80
2017-12-01T07:09:46.719Z,0.80
2017-12-01T07:12:14.203Z,0.90
2017-12-01T07:14:43.471Z,1.00
2017-12-01T07:17:11.002Z,0.90
2017-12-01T07:19:38.539Z,1.00
2017-12-01T07:22:06.168Z,1.10
2017-12-01T07:24:34.434Z,1.10
2017-12-01T07:27:08.007Z,1.10
2017-12-01T07:29:35.513Z,1.20
2017-12-01T07:32:03.017Z,1.20
2017-12-01T07:34:30.673Z,1.30
2017-12-01T07:36:58.164Z,1.30
2017-12-01T07:39:25.692Z,1.30
2017-12-01T07:41:53.191Z,1.30
2017-12-01T07:44:32.324Z,1.40
2017-12-01T07:47:00.160Z,1.30
2017-12-01T07:49:27.658Z,1.40
2017-12-01T07:51:55.931Z,1.50
2017-12-01T07:54:25.240Z,1.50
2017-12-01T07:56:53.519Z,1.60
2017-12-01T07:59:21.864Z,1.60
2017-12-01T08:01:49.918Z,1.60
2017-12-01T08:04:17.425Z,1.60
2017-12-01T08:06:45.684Z,1.70
2017-12-01T08:09:13.982Z,1.70
2017-12-01T08:11:41.483Z,1.70
2017-12-01T08:14:08.996Z,1.80
2017-12-01T08:16:49.109Z,1.80
2017-12-01T08:19:21.368Z,1.80
2017-12-01T08:22:00.766Z,1.80
2017-12-01T08:24:40.306Z,1.90
2017-12-01T08:27:07.810Z,1.90
2017-12-01T08:29:35.658Z,1.90
2017-12-01T08:32:03.261Z,2.00
2017-12-01T08:34:32.403Z,2.10
2017-12-01T08:36:59.895Z,2.10
2017-12-01T08:39:27.402Z,2.20
2017-12-01T08:41:54.958Z,2.20
2017-12-01T08:44:22.513Z,2.30
2017-12-01T08:46:50.003Z,2.20
2017-12-01T08:49:17.505Z,2.30
2017-12-01T08:51:45.790Z,2.40
2017-12-01T08:54:13.297Z,2.40
2017-12-01T08:56:40.775Z,2.40
2017-12-01T08:59:08.254Z,2.50
2017-12-01T09:01:36.499Z,2.50
2017-12-01T09:04:03.993Z,2.50
2017-12-01T09:06:32.234Z,2.60
2017-12-01T09:08:59.718Z,2.60
2017-12-01T09:11:27.981Z,2.70
2017-12-01T09:13:55.484Z,2.70
2017-12-01T09:16:22.992Z,2.70
2017-12-01T09:18:50.544Z,2.80
2017-12-01T09:21:18.018Z,2.80
2017-12-01T09:23:45.487Z,2.90
2017-12-01T09:26:13.732Z,2.90
2017-12-01T09:28:41.238Z,2.90
2017-12-01T09:31:08.738Z,2.90
2017-12-01T09:33:36.211Z,2.90
2017-12-01T09:36:03.717Z,2.90
2017-12-01T09:38:31.200Z,2.90
2017-12-01T09:40:58.698Z,2.80
2017-12-01T09:43:26.940Z,2.80
2017-12-01T09:45:54.431Z,2.80
2017-12-01T09:48:22.672Z,2.70
2017-12-01T09:50:50.169Z,2.70
2017-12-01T09:53:17.643Z,2.80
2017-12-01T09:55:45.119Z,2.70
2017-12-01T09:58:12.600Z,2.70
2017-12-01T10:00:40.076Z,2.70
2017-12-01T10:03:07.545Z,2.70
2017-12-01T10:05:35.016Z,2.70
2017-12-01T10:08:03.266Z,2.70
2017-12-01T10:10:30.735Z,2.70
2017-12-01T10:12:58.995Z,2.60
2017-12-01T10:15:27.231Z,2.70
2017-12-01T10:17:54.705Z,2.70
2017-12-01T10:20:22.179Z,2.70
2017-12-01T10:22:49.667Z,2.70
2017-12-01T10:25:17.928Z,2.70
2017-12-01T10:27:46.198Z,2.70
2017-12-01T10:30:13.663Z,2.60
2017-12-01T10:32:41.916Z,2.70
2017-12-01T10:35:09.396Z,2.70
2017-12-01T10:37:36.880Z,2.80
2017-12-01T10:40:04.353Z,2.80
2017-12-01T10:42:32.766Z,2.80
2017-12-01T10:45:00.223Z,2.80
2017-12-01T10:47:27.704Z,2.90
2017-12-01T10:49:55.939Z,3.00
2017-12-01T10:52:23.435Z,3.00
2017-12-01T10:54:51.691Z,3.20
2017-12-01T10:57:19.173Z,3.10
2017-12-01T10:59:47.432Z,3.20
2017-12-01T11:02:14.917Z,3.20
2017-12-01T11:04:43.228Z,3.40
2017-12-01T11:07:10.715Z,3.30
2017-12-01T11:09:38.313Z,3.40
2017-12-01T11:12:05.826Z,3.50
2017-12-01T11:14:33.337Z,3.50
2017-12-01T11:17:00.869Z,3.50
2017-12-01T11:19:29.137Z,3.60
2017-12-01T11:21:56.711Z,3.50
2017-12-01T11:24:24.976Z,3.50
2017-12-01T11:26:52.464Z,3.50
2017-12-01T11:29:19.966Z,3.50
2017-12-01T11:31:47.444Z,3.60
2017-12-01T11:34:14.927Z,3.70
2017-12-01T11:36:43.189Z,3.60
2017-12-01T11:39:11.448Z,3.50
2017-12-01T11:41:38.931Z,3.50
2017-12-01T11:44:07.190Z,3.60
2017-12-01T11:46:34.659Z,3.60
2017-12-01T11:49:02.921Z,3.70
2017-12-01T11:51:31.872Z,3.70
2017-12-01T11:53:59.347Z,3.70
2017-12-01T11:56:26.833Z,3.80
2017-12-01T11:58:55.078Z,3.90
2017-12-01T12:01:22.567Z,3.90
2017-12-01T12:03:50.856Z,3.90
2017-12-01T12:06:18.373Z,3.90
2017-12-01T12:08:46.701Z,4.00
2017-12-01T12:11:14.191Z,4.10
2017-12-01T12:13:41.695Z,4.10
2017-12-01T12:16:09.959Z,4.30
2017-12-01T12:18:37.439Z,4.30
2017-12-01T12:21:04.925Z,4.40
2017-12-01T12:23:33.167Z,4.50
2017-12-01T12:26:01.536Z,4.60
2017-12-01T12:28:29.784Z,4.60
2017-12-01T12:30:57.264Z,4.60
2017-12-01T12:33:25.511Z,4.60
2017-12-01T12:35:52.980Z,4.60
2017-12-01T12:38:20.448Z,4.70
2017-12-01T12:40:47.920Z,4.70
2017-12-01T12:43:16.181Z,5.00
2017-12-01T12:45:44.332Z,5.00
2017-12-01T12:48:12.644Z,5.10
2017-12-01T12:50:40.887Z,5.30
2017-12-01T12:53:08.382Z,5.20
2017-12-01T12:55:35.868Z,5.30
2017-12-01T12:58:03.355Z,5.20
2017-12-01T13:00:31.938Z,5.20
2017-12-01T13:03:00.247Z,5.20
2017-12-01T13:05:28.509Z,5.30
2017-12-01T13:07:56.000Z,5.30
2017-12-01T13:10:23.478Z,5.30
2017-12-01T13:12:50.979Z,5.30
2017-12-01T13:15:18.588Z,5.30
2017-12-01T13:17:46.074Z,5.10
2017-12-01T13:20:13.540Z,5.00
2017-12-01T13:22:41.036Z,5.00
2017-12-01T13:25:09.268Z,4.90
2017-12-01T13:27:36.756Z,4.90
2017-12-01T13:30:05.073Z,4.80
2017-12-01T13:32:32.619Z,4.80
2017-12-01T13:35:00.104Z,4.90
2017-12-01T13:37:27.596Z,4.90
2017-12-01T13:39:55.068Z,4.80
2017-12-01T13:42:23.351Z,5.00
2017-12-01T13:44:50.851Z,5.00
2017-12-01T13:47:18.338Z,5.00
2017-12-01T13:49:45.811Z,4.90
2017-12-01T13:52:14.089Z,4.80
2017-12-01T13:54:42.341Z,4.70
2017-12-01T13:57:09.811Z,4.70
2017-12-01T13:59:38.051Z,4.60
2017-12-01T14:02:05.535Z,4.60
2017-12-01T14:04:33.735Z,4.50
2017-12-01T14:07:01.970Z,4.40
2017-12-01T14:09:29.470Z,4.40
2017-12-01T14:11:56.962Z,4.40
2017-12-01T14:14:25.200Z,4.30
2017-12-01T14:16:52.677Z,4.30
2017-12-01T14:19:20.139Z,4.20
2017-12-01T14:21:47.603Z,4.30
2017-12-01T14:24:15.087Z,4.30
2017-12-01T14:26:42.671Z,4.40
2017-12-01T14:29:11.758Z,4.40
2017-12-01T14:31:40.013Z,4.50
2017-12-01T14:34:07.472Z,4.50
2017-12-01T14:36:34.927Z,4.50
2017-12-01T14:39:02.424Z,4.60
2017-12-01T14:41:30.680Z,4.60
2017-12-01T14:43:58.162Z,4.60
2017-12-01T14:46:25.662Z,4.60
2017-12-01T14:48:53.133Z,4.60
2017-12-01T14:51:20.615Z,4.60
2017-12-01T14:53:48.865Z,4.50
2017-12-01T14:56:16.344Z,4.60
2017-12-01T14:58:43.815Z,4.50
2017-12-01T15:01:12.992Z,4.40
2017-12-01T15:03:40.469Z,4.40
2017-12-01T15:06:08.737Z,4.20
2017-12-01T15:08:36.983Z,4.10
2017-12-01T15:11:04.469Z,4.10
2017-12-01T15:13:32.739Z,3.90
2017-12-01T15:16:00.987Z,3.70
2017-12-01T15:18:28.511Z,3.70
2017-12-01T15:20:55.988Z,3.60
2017-12-01T15:23:24.281Z,3.60
2017-12-01T15:25:51.765Z,3.40
2017-12-01T15:28:20.075Z,3.30
2017-12-01T15:30:47.573Z,3.30
2017-12-01T15:33:15.061Z,3.20
2017-12-01T15:35:43.068Z,3.20
2017-12-01T15:38:10.579Z,3.10
2017-12-01T15:40:38.854Z,3.00
2017-12-01T15:43:07.119Z,2.90
2017-12-01T15:45:34.623Z,2.90
2017-12-01T15:48:02.147Z,2.90
2017-12-01T15:50:30.405Z,2.80
2017-12-01T15:52:57.911Z,2.80
2017-12-01T15:55:25.384Z,2.70
2017-12-01T15:57:52.870Z,2.70
2017-12-01T16:00:20.396Z,2.60
2017-12-01T16:02:47.884Z,2.60
2017-12-01T16:05:15.391Z,2.50
2017-12-01T16:07:42.885Z,2.40
2017-12-01T16:10:10.400Z,2.30
2017-12-01T16:12:37.919Z,2.30
2017-12-01T16:15:05.407Z,2.20
2017-12-01T16:17:33.665Z,2.20
2017-12-01T16:20:01.937Z,2.10
2017-12-01T16:22:29.429Z,2.10
2017-12-01T16:24:56.921Z,2.00
2017-12-01T16:27:24.434Z,2.00
2017-12-01T16:29:51.941Z,1.90
2017-12-01T16:32:19.442Z,1.90
2017-12-01T16:34:47.697Z,1.80
2017-12-01T16:37:15.202Z,1.80
2017-12-01T16:39:42.739Z,1.80
2017-12-01T16:42:11.042Z,1.70
2017-12-01T16:44:38.572Z,1.70
2017-12-01T16:47:07.741Z,1.70
2017-12-01T16:49:36.526Z,1.70
2017-12-01T16:52:04.031Z,1.70
2017-12-01T16:54:31.536Z,1.70
2017-12-01T16:56:59.059Z,1.70
2017-12-01T16:59:26.583Z,1.60
2017-12-01T17:01:54.858Z,1.50
2017-12-01T17:04:23.129Z,1.50
2017-12-01T17:06:51.394Z,1.50
2017-12-01T17:09:18.884Z,1.50
2017-12-01T17:11:46.368Z,1.50
2017-12-01T17:14:13.880Z,1.40
2017-12-01T17:16:43.041Z,1.30
2017-12-01T17:19:10.559Z,1.30
2017-12-01T17:21:38.066Z,1.30
2017-12-01T17:24:05.608Z,1.30
2017-12-01T17:26:33.255Z,1.20
2017-12-01T17:29:00.742Z,1.20
2017-12-01T17:31:28.216Z,1.20
2017-12-01T17:33:55.682Z,1.10
2017-12-01T17:36:23.932Z,1.00
2017-12-01T17:38:51.449Z,1.00
2017-12-01T17:41:18.919Z,1.00
2017-12-01T17:43:47.291Z,1.00
2017-12-01T17:46:14.794Z,1.00
2017-12-01T17:48:42.271Z,1.00
2017-12-01T17:51:10.533Z,1.00
2017-12-01T17:53:38.841Z,1.00
2017-12-01T17:56:06.313Z,0.90
2017-12-01T17:58:34.433Z,0.90
2017-12-01T18:01:01.921Z,0.90
2017-12-01T18:03:29.468Z,1.00
2017-12-01T18:05:56.891Z,1.00
2017-12-01T18:08:24.381Z,1.00
2017-12-01T18:10:53.275Z,0.90
2017-12-01T18:13:20.842Z,0.90
2017-12-01T18:15:48.366Z,0.90
2017-12-01T18:18:16.630Z,0.80
2017-12-01T18:20:44.295Z,0.80
2017-12-01T18:23:11.953Z,0.80
2017-12-01T18:25:40.226Z,0.70
2017-12-01T18:28:08.583Z,0.70
2017-12-01T18:30:37.431Z,0.70
2017-12-01T18:33:05.703Z,0.70
2017-12-01T18:35:33.953Z,0.70
2017-12-01T18:38:01.449Z,0.60
2017-12-01T18:40:28.936Z,0.60
2017-12-01T18:42:56.415Z,0.60
2017-12-01T18:45:23.920Z,0.50
2017-12-01T18:47:51.409Z,0.50
2017-12-01T18:50:18.907Z,0.40
2017-12-01T18:52:46.402Z,0.40
2017-12-01T18:55:13.892Z,0.40
2017-12-01T18:57:41.375Z,0.50
2017-12-01T19:00:08.843Z,0.50
2017-12-01T19:02:36.315Z,0.50
2017-12-01T19:05:03.801Z,0.50
2017-12-01T19:07:31.289Z,0.50
2017-12-01T19:09:58.779Z,0.40
2017-12-01T19:12:27.047Z,0.40
2017-12-01T19:14:55.333Z,0.30
2017-12-01T19:17:22.789Z,0.30
2017-12-01T19:19:51.052Z,0.30
2017-12-01T19:22:19.446Z,0.20
2017-12-01T19:24:47.103Z,0.20
2017-12-01T19:27:15.339Z,0.20
2017-12-01T19:29:42.837Z,0.10
2017-12-01T19:32:11.093Z,0.10
2017-12-01T19:34:38.584Z,0.10
2017-12-01T19:37:06.063Z,0.10
2017-12-01T19:39:33.530Z,0.10
2017-12-01T19:42:01.005Z,0.10
2017-12-01T19:44:29.275Z,0.10
2017-12-01T19:46:56.757Z,0.10
2017-12-01T19:49:25.044Z,0.10
2017-12-01T19:51:53.296Z,0.10
2017-12-01T19:54:20.817Z,0.10
2017-12-01T19:56:48.311Z,0.10
2017-12-01T19:59:15.795Z,0.10
2017-12-01T20:01:44.032Z,0.10
2017-12-01T20:04:11.508Z,0.10
2017-12-01T20:06:38.973Z,0.10
2017-12-01T20:09:07.217Z,0.00
2017-12-01T20:11:34.696Z,0.00
2017-12-01T20:14:02.162Z,0.00
2017-12-01T20:16:34.603Z,-0.10
2017-12-01T20:19:02.120Z,-0.10
2017-12-01T20:21:29.658Z,-0.10
2017-12-01T20:23:57.927Z,-0.10
2017-12-01T20:26:26.178Z,-0.10
2017-12-01T20:28:54.941Z,-0.10
2017-12-01T20:31:22.460Z,-0.10
2017-12-01T20:33:50.733Z,-0.10
2017-12-01T20:36:18.990Z,-0.10
2017-12-01T20:38:47.263Z,-0.10
2017-12-01T20:41:14.768Z,-0.10
2017-12-01T20:43:42.876Z,-0.10
2017-12-01T20:46:10.376Z,-0.10
2017-12-01T20:48:37.883Z,-0.20
2017-12-01T20:51:05.395Z,-0.20
2017-12-01T20:53:32.905Z,-0.20
2017-12-01T20:56:00.451Z,-0.20
2017-12-01T20:58:27.934Z,-0.20
2017-12-01T21:00:55.422Z,-0.20
2017-12-01T21:03:22.980Z,-0.20
2017-12-01T21:05:51.246Z,-0.30
2017-12-01T21:08:19.504Z,-0.30
2017-12-01T21:10:46.980Z,-0.30
2017-12-01T21:13:15.239Z,-0.30
2017-12-01T21:15:42.720Z,-0.30
2017-12-01T21:18:10.980Z,-0.30
2017-12-01T21:20:39.239Z,-0.40
2017-12-01T21:23:06.724Z,-0.40
2017-12-01T21:25:34.992Z,-0.40
2017-12-01T21:28:02.463Z,-0.40
2017-12-01T21:30:29.966Z,-0.50
2017-12-01T21:32:57.431Z,-0.50
2017-12-01T21:35:24.968Z,-0.40
2017-12-01T21:37:52.607Z,-0.50
2017-12-01T21:40:20.087Z,-0.50
2017-12-01T21:42:47.584Z,-0.50
2017-12-01T21:45:15.156Z,-0.50
2017-12-01T21:47:43.407Z,-0.50
2017-12-01T21:50:11.225Z,-0.60
2017-12-01T21:52:38.704Z,-0.50
2017-12-01T21:55:06.384Z,-0.50
2017-12-01T21:57:33.868Z,-0.50
2017-12-01T22:00:02.116Z,-0.50
2017-12-01T22:02:29.613Z,-0.50
2017-12-01T22:04:57.942Z,-0.60
2017-12-01T22:07:25.449Z,-0.60
2017-12-01T22:09:53.705Z,-0.70
2017-12-01T22:12:22.026Z,-0.70
2017-12-01T22:14:49.561Z,-0.70
2017-12-01T22:17:17.839Z,-0.70
2017-12-01T22:19:45.352Z,-0.80
2017-12-01T22:22:13.010Z,-0.80
2017-12-01T22:24:40.506Z,-0.80
2017-12-01T22:27:08.774Z,-1.00
2017-12-01T22:29:37.047Z,-1.00
2017-12-01T22:32:05.298Z,-1.00
2017-12-01T22:34:32.767Z,-1.00
2017-12-01T22:37:00.365Z,-1.00
2017-12-01T22:39:27.846Z,-1.00
2017-12-01T22:41:55.323Z,-1.00
2017-12-01T22:44:22.809Z,-1.00
2017-12-01T22:46:51.070Z,-1.20
2017-12-01T22:49:18.666Z,-1.20
2017-12-01T22:51:46.175Z,-1.10
2017-12-01T22:54:13.663Z,-1.10
2017-12-01T22:56:41.916Z,-1.20
2017-12-01T22:59:09.399Z,-1.20
2017-12-01T23:01:37.647Z,-1.20
2017-12-01T23:04:05.133Z,-1.20
2017-12-01T23:06:33.397Z,-1.30
2017-12-01T23:09:01.652Z,-1.30
2017-12-01T23:11:29.140Z,-1.30
2017-12-01T23:13:57.383Z,-1.20
2017-12-01T23:16:24.859Z,-1.30
2017-12-01T23:18:53.120Z,-1.20
2017-12-01T23:21:21.331Z,-1.20
2017-12-01T23:23:49.564Z,-1.20
2017-12-01T23:26:17.057Z,-1.20
2017-12-01T23:28:45.304Z,-1.30
2017-12-01T23:31:14.096Z,-1.30
2017-12-01T23:33:41.599Z,-1.30
2017-12-01T23:36:09.096Z,-1.40
2017-12-01T23:38:38.092Z,-1.40
2017-12-01T23:41:05.596Z,-1.40
2017-12-01T23:43:33.093Z,-1.50
2017-12-01T23:46:01.368Z,-1.50
2017-12-01T23:48:28.892Z,-1.50
2017-12-01T23:50:56.379Z,-1.50
2017-12-01T23:53:23.860Z,-1.60
2017-12-01T23:55:51.371Z,-1.50
2017-12-01T23:58:18.875Z,-1.60
